Time;durP1;ratioP1;P1;durP2;ratioP2;P2;SDS_P1;SDS_P2;PMS_P1;PMS_P2;Temp;Humidity;BMP_temperature;BMP_pressure;BME280_temperature;BME280_humidity;BME280_pressure;Samples;Min_cycle;Max_cycle;Signal;HPM_P1;HPM_P2
2023/12/07 00:01:28;;;;;;;2.53;2.43;;;;;;;3.33;100.00;95613.69;4400916;32;20321;-65
2023/12/07 00:03:53;;;;;;;2.93;2.63;;;;;;;3.21;100.00;95613.00;4381153;32;20315;-65
2023/12/07 00:06:20;;;;;;;2.90;2.70;;;;;;;3.20;100.00;95615.84;4403230;32;20402;-65
2023/12/07 00:08:45;;;;;;;2.73;2.53;;;;;;;3.18;100.00;95621.34;4386451;32;20262;-65
2023/12/07 00:11:13;;;;;;;3.20;3.10;;;;;;;3.16;100.00;95618.16;4393041;32;20303;-65
2023/12/07 00:13:39;;;;;;;3.73;3.53;;;;;;;3.20;100.00;95616.66;4393675;32;20195;-65
2023/12/07 00:16:07;;;;;;;3.70;3.40;;;;;;;3.12;100.00;95623.06;4399585;32;20328;-65
2023/12/07 00:18:33;;;;;;;2.77;2.57;;;;;;;3.18;100.00;95626.56;4393899;32;20298;-65
2023/12/07 00:20:59;;;;;;;2.63;2.43;;;;;;;3.33;100.00;95623.38;4390841;32;20393;-65
2023/12/07 00:23:27;;;;;;;4.50;3.77;;;;;;;3.27;100.00;95619.91;4361683;32;20292;-65
2023/12/07 00:25:52;;;;;;;3.23;3.13;;;;;;;3.39;100.00;95623.22;4364755;32;20350;-65
2023/12/07 00:28:18;;;;;;;2.53;2.43;;;;;;;3.43;100.00;95620.91;4374889;32;20287;-65
2023/12/07 00:30:46;;;;;;;3.27;3.07;;;;;;;3.58;100.00;95625.56;4397380;32;20211;-65
2023/12/07 00:33:12;;;;;;;2.87;2.77;;;;;;;3.33;100.00;95624.16;4396346;32;20335;-65
2023/12/07 00:35:38;;;;;;;3.10;2.90;;;;;;;3.23;100.00;95625.87;4387008;32;20284;-65
2023/12/07 00:38:08;;;;;;;2.63;2.53;;;;;;;3.19;100.00;95622.91;4396787;32;20184;-65
2023/12/07 00:40:37;;;;;;;5.47;3.73;;;;;;;2.96;100.00;95633.56;4384773;32;20275;-65
2023/12/07 00:43:07;;;;;;;2.57;2.47;;;;;;;3.22;100.00;95625.06;4397925;32;20493;-65
2023/12/07 00:45:37;;;;;;;3.47;3.27;;;;;;;3.00;100.00;95632.84;4381742;32;20345;-65
2023/12/07 00:48:05;;;;;;;2.60;2.43;;;;;;;3.03;100.00;95628.97;4398744;32;20276;-65
2023/12/07 00:50:31;;;;;;;3.17;2.87;;;;;;;2.92;100.00;95638.47;4403709;32;20341;-65
2023/12/07 00:52:56;;;;;;;2.20;2.10;;;;;;;2.91;100.00;95641.34;4384272;32;20347;-65
2023/12/07 00:55:22;;;;;;;4.00;3.70;;;;;;;2.84;100.00;95633.63;4403770;32;20212;-65
2023/12/07 00:57:47;;;;;;;4.60;4.37;;;;;;;2.81;100.00;95646.41;4381537;32;20196;-65
2023/12/07 01:00:14;;;;;;;6.40;3.03;;;;;;;3.04;100.00;95646.28;4381098;32;20214;-65
2023/12/07 01:02:45;;;;;;;3.27;3.03;;;;;;;2.94;100.00;95646.88;4374612;32;20284;-65
2023/12/07 01:05:13;;;;;;;2.83;2.67;;;;;;;3.04;100.00;95647.06;4364019;32;20290;-61
2023/12/07 01:07:39;;;;;;;3.63;3.43;;;;;;;2.97;100.00;95645.62;4366167;32;20329;-65
2023/12/07 01:10:06;;;;;;;3.23;3.03;;;;;;;2.82;100.00;95648.00;4386154;32;20283;-65
2023/12/07 01:12:32;;;;;;;3.07;2.90;;;;;;;2.95;100.00;95653.72;4394810;32;20386;-65
2023/12/07 01:14:58;;;;;;;3.47;3.17;;;;;;;3.04;100.00;95662.78;4382834;32;20279;-65
2023/12/07 01:17:23;;;;;;;2.70;2.50;;;;;;;2.80;100.00;95663.94;4398469;32;20212;-65
2023/12/07 01:19:50;;;;;;;2.70;2.60;;;;;;;2.74;100.00;95670.13;4367739;32;20347;-65
2023/12/07 01:22:15;;;;;;;2.40;2.30;;;;;;;2.64;100.00;95665.50;4367385;32;20196;-65
2023/12/07 01:24:45;;;;;;;3.50;3.27;;;;;;;2.76;100.00;95663.63;4397147;32;20279;-63
2023/12/07 01:27:11;;;;;;;2.77;2.67;;;;;;;2.91;100.00;95667.56;4401200;32;20184;-63
2023/12/07 01:29:38;;;;;;;3.30;3.03;;;;;;;2.59;100.00;95668.03;4410442;32;20268;-65
2023/12/07 01:32:05;;;;;;;4.00;3.70;;;;;;;2.78;100.00;95667.84;4361253;32;20311;-66
2023/12/07 01:34:32;;;;;;;2.90;2.70;;;;;;;2.69;100.00;95668.22;4380212;32;20382;-65
2023/12/07 01:36:58;;;;;;;4.20;3.50;;;;;;;2.58;100.00;95673.50;4400678;32;20295;-65
2023/12/07 01:39:25;;;;;;;2.30;2.20;;;;;;;2.53;100.00;95689.91;4393721;32;20412;-65
2023/12/07 01:41:52;;;;;;;2.50;2.40;;;;;;;2.72;100.00;95690.50;4348348;32;20260;-65
2023/12/07 01:44:19;;;;;;;2.33;2.23;;;;;;;2.57;100.00;95683.19;4386973;32;20303;-65
2023/12/07 01:46:47;;;;;;;3.10;2.90;;;;;;;2.63;100.00;95687.50;4389252;32;20288;-64
2023/12/07 01:49:12;;;;;;;3.93;3.63;;;;;;;2.68;100.00;95684.97;4385443;32;20306;-65
2023/12/07 01:51:39;;;;;;;4.40;4.00;;;;;;;2.68;100.00;95695.44;4390564;32;20291;-65
2023/12/07 01:54:06;;;;;;;5.90;4.17;;;;;;;2.63;100.00;95697.16;4386616;32;20192;-65
2023/12/07 01:56:31;;;;;;;3.70;3.57;;;;;;;2.54;100.00;95703.78;4404402;32;20283;-66
2023/12/07 01:58:58;;;;;;;3.30;3.20;;;;;;;2.71;100.00;95699.41;4404289;32;20378;-65
2023/12/07 02:01:26;;;;;;;3.17;3.07;;;;;;;2.57;100.00;95703.34;4377770;32;20331;-65
2023/12/07 02:03:53;;;;;;;4.33;4.07;;;;;;;2.70;100.00;95700.44;4389721;32;20283;-65
2023/12/07 02:06:20;;;;;;;3.53;3.33;;;;;;;2.58;100.00;95708.34;4369007;32;20296;-65
2023/12/07 02:08:47;;;;;;;4.17;3.87;;;;;;;2.67;100.00;95704.34;4390846;32;20302;-65
2023/12/07 02:11:15;;;;;;;3.57;3.37;;;;;;;2.66;100.00;95712.41;4393950;32;20275;-64
2023/12/07 02:13:41;;;;;;;2.40;2.10;;;;;;;2.47;100.00;95706.56;4379086;32;20283;-64
2023/12/07 02:16:33;;;;;;;5.80;3.47;;;;;;;2.33;100.00;95713.88;4403674;32;20296;-66
2023/12/07 02:19:40;;;;;;;3.20;2.93;;;;;;;2.46;100.00;95717.28;4407950;32;20342;-66
2023/12/07 02:22:13;;;;;;;3.07;2.87;;;;;;;2.33;100.00;95721.72;4338349;32;20344;-66
2023/12/07 02:25:10;;;;;;;3.17;2.63;;;;;;;2.28;100.00;95716.41;4320360;32;20341;-66
2023/12/07 02:27:54;;;;;;;3.20;3.03;;;;;;;2.22;100.00;95722.56;4345892;32;20287;-66
2023/12/07 02:30:20;;;;;;;4.60;4.03;;;;;;;2.08;100.00;95730.88;4342197;32;20329;-65
2023/12/07 02:32:48;;;;;;;10.43;4.43;;;;;;;2.12;100.00;95727.56;4341836;32;20300;-66
2023/12/07 02:35:42;;;;;;;2.77;2.67;;;;;;;2.10;100.00;95723.59;4342591;32;20274;-66
2023/12/07 02:38:12;;;;;;;4.90;4.60;;;;;;;2.15;100.00;95732.34;4341796;32;20280;-65
2023/12/07 02:40:40;;;;;;;3.93;3.67;;;;;;;2.29;100.00;95717.16;4339113;32;20309;-66
2023/12/07 02:43:08;;;;;;;4.03;3.73;;;;;;;2.17;100.00;95726.88;4348534;32;20297;-66
2023/12/07 02:45:37;;;;;;;2.70;2.53;;;;;;;2.19;100.00;95730.06;4320782;32;20403;-66
2023/12/07 02:48:07;;;;;;;3.57;3.37;;;;;;;2.10;100.00;95726.19;4385580;32;20339;-66
2023/12/07 02:50:33;;;;;;;3.10;2.90;;;;;;;2.02;100.00;95729.97;4398626;32;20311;-65
2023/12/07 02:53:14;;;;;;;2.10;2.00;;;;;;;2.02;100.00;95733.41;4361812;32;20299;-66
2023/12/07 02:55:39;;;;;;;3.70;3.50;;;;;;;1.86;100.00;95725.44;4383127;32;20320;-66
2023/12/07 02:58:06;;;;;;;3.70;3.43;;;;;;;1.80;100.00;95729.75;4391006;32;20322;-66
2023/12/07 03:00:41;;;;;;;2.57;2.47;;;;;;;1.79;100.00;95738.63;4384023;32;20195;-66
2023/12/07 03:03:08;;;;;;;2.93;2.83;;;;;;;1.56;100.00;95742.03;4385361;32;20410;-66
2023/12/07 03:05:35;;;;;;;3.73;3.40;;;;;;;1.80;100.00;95739.44;4384765;32;20359;-66
2023/12/07 03:08:02;;;;;;;2.73;2.63;;;;;;;1.95;100.00;95740.56;4383996;32;20465;-66
2023/12/07 03:10:29;;;;;;;3.00;2.90;;;;;;;2.05;100.00;95740.78;4381094;32;20372;-66
2023/12/07 03:12:55;;;;;;;3.77;3.43;;;;;;;1.88;100.00;95747.72;4388483;32;20293;-66
2023/12/07 03:15:22;;;;;;;2.13;2.10;;;;;;;1.72;100.00;95743.97;4395303;32;20291;-66
2023/12/07 03:17:52;;;;;;;5.60;3.57;;;;;;;1.77;100.00;95751.12;4371614;32;20333;-66
2023/12/07 03:20:18;;;;;;;2.53;2.43;;;;;;;1.89;100.00;95753.75;4365559;32;20401;-66
2023/12/07 03:22:44;;;;;;;3.57;3.27;;;;;;;1.91;100.00;95744.66;4396891;32;20312;-66
2023/12/07 03:25:10;;;;;;;3.63;3.40;;;;;;;1.95;100.00;95743.16;4405600;32;20279;-62
2023/12/07 03:27:37;;;;;;;2.97;2.83;;;;;;;2.08;100.00;95742.91;4381922;32;20310;-66
2023/12/07 03:30:12;;;;;;;2.67;2.57;;;;;;;1.91;100.00;95742.03;4360528;32;20227;-66
2023/12/07 03:32:39;;;;;;;1.90;1.80;;;;;;;2.13;100.00;95744.84;4368143;32;20302;-66
2023/12/07 03:35:04;;;;;;;2.17;2.07;;;;;;;2.28;100.00;95732.09;4390226;32;20276;-66
2023/12/07 03:37:31;;;;;;;3.03;2.90;;;;;;;2.08;100.00;95746.59;4383608;32;20443;-66
2023/12/07 03:39:58;;;;;;;9.20;3.40;;;;;;;2.00;100.00;95751.12;4384202;32;20215;-66
2023/12/07 03:42:24;;;;;;;2.37;2.13;;;;;;;2.02;100.00;95748.28;4387320;32;20291;-66
2023/12/07 03:44:51;;;;;;;5.40;3.77;;;;;;;2.15;100.00;95755.09;4396528;32;20335;-65
2023/12/07 03:47:17;;;;;;;3.50;3.30;;;;;;;1.94;100.00;95754.66;4361707;32;20303;-66
2023/12/07 03:49:45;;;;;;;5.07;4.67;;;;;;;1.73;100.00;95756.00;4377939;32;20284;-65
2023/12/07 03:52:12;;;;;;;2.57;2.47;;;;;;;2.01;100.00;95750.13;4337649;32;20204;-66
2023/12/07 03:54:38;;;;;;;4.53;2.93;;;;;;;1.86;100.00;95755.00;4405402;32;20302;-66
2023/12/07 03:57:06;;;;;;;3.43;3.03;;;;;;;1.79;100.00;95749.09;4384207;32;20353;-66
2023/12/07 03:59:38;;;;;;;2.57;2.37;;;;;;;1.87;100.00;95753.19;4394058;32;20288;-66
2023/12/07 04:02:05;;;;;;;2.43;2.33;;;;;;;2.00;100.00;95751.12;4402717;32;20279;-65
2023/12/07 04:04:32;;;;;;;2.63;2.53;;;;;;;2.02;100.00;95750.91;4406052;32;20397;-66
2023/12/07 04:06:59;;;;;;;3.03;2.73;;;;;;;2.00;100.00;95751.12;4347172;32;20315;-66
2023/12/07 04:09:26;;;;;;;3.17;2.87;;;;;;;1.93;100.00;95758.28;4385303;32;20268;-66
2023/12/07 04:11:51;;;;;;;3.80;3.13;;;;;;;2.00;100.00;95758.97;4398072;32;20300;-65
2023/12/07 04:14:17;;;;;;;3.70;2.53;;;;;;;1.82;100.00;95763.53;4382740;32;20312;-65
2023/12/07 04:16:44;;;;;;;2.20;2.10;;;;;;;1.95;100.00;95768.53;4358121;32;20289;-62
2023/12/07 04:19:12;;;;;;;2.67;2.30;;;;;;;1.92;100.00;95761.94;4393218;32;20244;-66
2023/12/07 04:21:38;;;;;;;3.97;3.57;;;;;;;1.92;100.00;95771.59;4405532;32;20283;-66
2023/12/07 04:24:05;;;;;;;3.20;3.00;;;;;;;2.13;100.00;95770.22;4394952;32;20299;-66
2023/12/07 04:26:31;;;;;;;2.13;2.03;;;;;;;2.10;100.00;95765.44;4397095;32;21941;-66
2023/12/07 04:28:59;;;;;;;3.27;3.07;;;;;;;2.38;100.00;95757.69;4396835;32;20294;-66
2023/12/07 04:31:25;;;;;;;3.13;2.83;;;;;;;2.35;100.00;95771.22;4387717;32;20339;-66
2023/12/07 04:33:53;;;;;;;3.90;3.23;;;;;;;2.24;100.00;95767.62;4381724;32;20274;-66
2023/12/07 04:36:19;;;;;;;2.93;2.77;;;;;;;2.28;100.00;95774.00;4358811;32;20396;-66
2023/12/07 04:38:45;;;;;;;3.40;3.20;;;;;;;2.21;100.00;95781.16;4381273;32;20291;-66
2023/12/07 04:41:15;;;;;;;3.50;3.30;;;;;;;2.26;100.00;95777.84;4387195;32;20226;-60
2023/12/07 04:43:43;;;;;;;2.43;2.33;;;;;;;2.28;100.00;95781.03;4379549;32;20307;-66
2023/12/07 04:46:09;;;;;;;3.57;3.30;;;;;;;2.36;100.00;95785.91;4399913;32;20340;-66
2023/12/07 04:48:36;;;;;;;3.03;2.83;;;;;;;2.47;100.00;95785.09;4399783;32;20335;-66
2023/12/07 04:51:01;;;;;;;2.87;2.67;;;;;;;2.62;100.00;95788.03;4400786;32;20387;-66
2023/12/07 04:53:28;;;;;;;2.87;2.67;;;;;;;2.53;100.00;95789.41;4354216;32;20277;-66
2023/12/07 04:55:55;;;;;;;3.63;3.43;;;;;;;2.52;100.00;95795.66;4373483;32;20200;-66
2023/12/07 04:58:22;;;;;;;1.90;1.87;;;;;;;2.56;100.00;95796.78;4375916;32;20299;-65
2023/12/07 05:00:49;;;;;;;3.13;2.23;;;;;;;2.90;100.00;95804.81;4360551;32;20379;-66
2023/12/07 05:03:19;;;;;;;2.67;2.57;;;;;;;2.90;100.00;95791.72;4373976;32;20355;-65
2023/12/07 05:05:49;;;;;;;1.93;1.83;;;;;;;2.78;100.00;95793.56;4386429;32;20320;-65
2023/12/07 05:08:19;;;;;;;2.83;2.63;;;;;;;2.81;100.00;95790.47;4379296;32;20280;-65
2023/12/07 05:10:46;;;;;;;1.87;1.87;;;;;;;2.50;100.00;95792.47;4333128;32;20308;-65
2023/12/07 05:13:14;;;;;;;2.30;2.17;;;;;;;2.50;100.00;95789.84;4376492;32;20360;-65
2023/12/07 05:15:41;;;;;;;3.17;2.97;;;;;;;2.66;100.00;95781.31;4381732;32;20318;-66
2023/12/07 05:18:08;;;;;;;1.93;1.83;;;;;;;2.65;100.00;95789.38;4374794;32;20276;-66
2023/12/07 05:20:34;;;;;;;1.80;1.80;;;;;;;2.64;100.00;95783.34;4401580;32;20283;-66
2023/12/07 05:23:01;;;;;;;2.77;2.47;;;;;;;2.74;100.00;95791.41;4380675;32;20303;-65
2023/12/07 05:25:28;;;;;;;2.47;2.23;;;;;;;2.70;100.00;95785.03;4384794;32;20341;-66
2023/12/07 05:27:54;;;;;;;3.37;1.80;;;;;;;2.57;100.00;95781.88;4384234;32;20288;-66
2023/12/07 05:30:21;;;;;;;1.73;1.73;;;;;;;2.56;100.00;95791.56;4379181;32;20287;-65
2023/12/07 05:32:46;;;;;;;2.40;2.20;;;;;;;2.49;100.00;95788.28;4377712;32;20320;-65
2023/12/07 05:35:13;;;;;;;1.90;1.80;;;;;;;2.60;100.00;95787.47;4406665;32;20275;-62
2023/12/07 05:37:39;;;;;;;2.50;2.40;;;;;;;2.51;100.00;95785.41;4325151;32;20237;-66
2023/12/07 05:40:19;;;;;;;2.47;2.00;;;;;;;2.45;100.00;95789.78;4376185;32;20344;-66
2023/12/07 05:42:49;;;;;;;1.30;1.30;;;;;;;2.73;99.92;95789.81;4359733;32;20292;-65
2023/12/07 05:45:16;;;;;;;2.20;2.10;;;;;;;2.67;99.91;95788.13;4376832;32;20345;-66
2023/12/07 05:47:42;;;;;;;2.60;2.33;;;;;;;2.61;99.67;95788.25;4395846;32;20305;-66
2023/12/07 05:50:08;;;;;;;10.20;2.80;;;;;;;2.42;100.00;95790.22;4394835;32;20295;-66
2023/12/07 05:52:35;;;;;;;1.47;1.47;;;;;;;2.38;100.00;95781.25;4395208;32;20197;-66
2023/12/07 05:55:02;;;;;;;2.47;2.27;;;;;;;2.45;100.00;95783.75;4388826;32;22445;-66
2023/12/07 05:57:28;;;;;;;2.63;2.47;;;;;;;2.35;100.00;95784.31;4370022;32;20307;-66
2023/12/07 05:59:57;;;;;;;2.43;2.33;;;;;;;2.51;100.00;95786.22;4377785;32;20284;-66
2023/12/07 06:02:22;;;;;;;3.27;3.00;;;;;;;2.60;99.30;95784.03;4367017;32;20283;-66
2023/12/07 06:04:49;;;;;;;3.00;2.80;;;;;;;2.39;99.45;95788.06;4390776;32;20306;-66
2023/12/07 06:07:17;;;;;;;2.30;2.20;;;;;;;2.44;99.56;95782.94;4401026;32;20214;-65
2023/12/07 06:09:43;;;;;;;2.60;2.50;;;;;;;2.32;99.75;95779.53;4373886;32;20314;-65
2023/12/07 06:12:10;;;;;;;1.33;1.33;;;;;;;2.10;100.00;95783.75;4393266;32;20288;-66
2023/12/07 06:14:39;;;;;;;1.73;1.63;;;;;;;2.36;100.00;95783.28;4375344;32;20307;-65
2023/12/07 06:17:08;;;;;;;3.60;2.17;;;;;;;2.53;99.16;95775.50;4384919;32;20331;-66
2023/12/07 06:19:33;;;;;;;2.03;1.93;;;;;;;2.21;100.00;95782.97;4390749;32;20330;-66
2023/12/07 06:22:01;;;;;;;2.57;2.47;;;;;;;2.35;99.38;95784.31;4379997;32;20311;-66
2023/12/07 06:24:26;;;;;;;1.90;1.80;;;;;;;2.22;99.98;95787.19;4379199;32;20196;-65
2023/12/07 06:26:53;;;;;;;1.80;1.77;;;;;;;2.42;98.95;95785.00;4404081;32;20279;-65
2023/12/07 06:29:20;;;;;;;2.23;2.07;;;;;;;2.36;99.28;95784.09;4396175;32;20200;-66
2023/12/07 06:31:47;;;;;;;1.03;1.03;;;;;;;2.54;99.19;95793.59;4393459;32;20394;-65
2023/12/07 06:34:16;;;;;;;2.30;2.20;;;;;;;2.39;99.48;95788.88;4334690;32;20419;-65
2023/12/07 06:36:43;;;;;;;3.03;2.67;;;;;;;2.40;99.79;95789.66;4385875;32;20280;-65
2023/12/07 06:39:10;;;;;;;1.27;1.27;;;;;;;2.27;100.00;95792.53;4396059;32;20359;-66
2023/12/07 06:41:37;;;;;;;2.33;2.13;;;;;;;2.62;99.06;95790.66;4364894;32;20435;-66
2023/12/07 06:44:04;;;;;;;3.17;2.97;;;;;;;2.21;99.92;95794.25;4341153;32;20277;-65
2023/12/07 06:46:29;;;;;;;1.73;1.73;;;;;;;2.49;99.43;95796.16;4373780;32;20297;-66
2023/12/07 06:48:57;;;;;;;1.93;1.83;;;;;;;2.35;100.00;95794.78;4385250;32;20309;-65
2023/12/07 06:51:24;;;;;;;2.37;2.27;;;;;;;2.14;100.00;95809.25;4369244;32;20214;-66
2023/12/07 06:53:51;;;;;;;2.73;2.50;;;;;;;2.20;100.00;95810.16;4387014;32;20368;-65
2023/12/07 06:56:17;;;;;;;2.13;2.03;;;;;;;2.16;100.00;95806.41;4389673;32;20292;-66
2023/12/07 06:58:47;;;;;;;2.03;1.93;;;;;;;2.25;100.00;95805.06;4397830;32;20284;-64
2023/12/07 07:01:13;;;;;;;2.53;2.37;;;;;;;2.25;100.00;95805.06;4393099;32;20310;-65
2023/12/07 07:03:46;;;;;;;2.27;2.17;;;;;;;2.13;100.00;95812.09;4385700;32;20310;-66
2023/12/07 07:06:15;;;;;;;2.97;2.77;;;;;;;2.18;100.00;95805.16;4383421;32;20313;-65
2023/12/07 07:09:05;;;;;;;1.63;1.63;;;;;;;2.32;100.00;95811.75;4395466;32;20290;-65
2023/12/07 07:11:34;;;;;;;2.73;2.63;;;;;;;2.30;100.00;95803.31;4399507;32;20375;-66
2023/12/07 07:14:01;;;;;;;2.77;2.57;;;;;;;2.20;100.00;95802.31;4390339;32;20570;-66
2023/12/07 07:16:26;;;;;;;7.43;5.73;;;;;;;2.31;100.00;95804.91;4398042;32;20298;-65
2023/12/07 07:18:54;;;;;;;2.97;2.80;;;;;;;2.23;100.00;95807.91;4393363;32;20403;-65
2023/12/07 07:21:20;;;;;;;1.47;1.47;;;;;;;2.31;100.00;95811.97;4403728;32;20204;-65
2023/12/07 07:23:48;;;;;;;3.23;3.03;;;;;;;2.14;100.00;95804.00;4396305;32;20359;-66
2023/12/07 07:26:16;;;;;;;5.60;2.43;;;;;;;2.32;100.00;95806.50;4381684;32;20206;-65
2023/12/07 07:28:46;;;;;;;2.00;1.90;;;;;;;2.42;100.00;95805.94;4388143;32;20290;-66
2023/12/07 07:31:13;;;;;;;1.83;1.83;;;;;;;2.50;100.00;95807.38;4371368;32;20353;-65
2023/12/07 07:33:39;;;;;;;2.10;2.00;;;;;;;2.38;100.00;95804.78;4365332;32;20378;-65
2023/12/07 07:39:29;;;;;;;10.80;3.70;;;;;;;7.63;100.00;95790.22;4365628;32;20315;-62
2023/12/07 07:41:56;;;;;;;6.57;3.03;;;;;;;8.37;100.00;95808.16;4391213;32;20390;-62
2023/12/07 07:44:25;;;;;;;1.70;1.60;;;;;;;9.50;97.37;95808.28;4390988;32;20291;-62
2023/12/07 07:46:50;;;;;;;4.00;2.10;;;;;;;10.66;79.53;95797.81;4393060;32;20339;-61
2023/12/07 07:49:17;;;;;;;2.57;2.27;;;;;;;11.08;73.17;95796.28;4380059;32;20333;-62
2023/12/07 07:51:43;;;;;;;3.20;3.00;;;;;;;10.99;70.38;95807.56;4367995;32;20205;-65
2023/12/07 07:54:10;;;;;;;2.40;2.27;;;;;;;9.35;58.13;95811.03;4350617;32;20230;-66
2023/12/07 07:56:38;;;;;;;1.43;1.43;;;;;;;8.07;61.98;95812.41;4358161;32;20200;-66
2023/12/07 07:59:04;;;;;;;1.90;1.70;;;;;;;6.60;66.34;95825.22;4402884;32;20313;-65
2023/12/07 08:01:32;;;;;;;2.33;2.23;;;;;;;5.49;71.34;95825.13;4359585;32;20299;-68
2023/12/07 08:03:59;;;;;;;4.93;2.73;;;;;;;4.88;75.36;95823.66;4372535;32;20320;-67
2023/12/07 08:06:24;;;;;;;3.70;3.40;;;;;;;4.81;76.05;95824.63;4390135;32;20318;-67
2023/12/07 08:08:51;;;;;;;2.87;2.67;;;;;;;3.93;79.69;95825.50;4376992;32;20340;-67
2023/12/07 08:11:17;;;;;;;2.20;1.87;;;;;;;3.85;80.90;95831.13;4371478;32;20248;-67
2023/12/07 08:13:45;;;;;;;2.70;2.50;;;;;;;3.72;81.54;95820.97;4349690;32;20308;-67
2023/12/07 08:16:14;;;;;;;1.10;1.10;;;;;;;3.82;81.64;95818.50;4355031;32;20313;-67
2023/12/07 08:18:40;;;;;;;1.33;1.33;;;;;;;3.84;81.27;95818.25;4362749;32;20288;-66
2023/12/07 08:21:08;;;;;;;3.87;2.57;;;;;;;3.72;82.19;95823.59;4397790;32;20280;-68
2023/12/07 08:23:36;;;;;;;2.67;2.40;;;;;;;3.48;83.22;95817.66;4384541;32;20314;-66
2023/12/07 08:26:02;;;;;;;1.77;1.67;;;;;;;3.44;83.57;95821.78;4404627;32;20378;-67
2023/12/07 08:28:29;;;;;;;2.07;1.97;;;;;;;3.42;83.05;95819.41;4404342;32;20283;-66
2023/12/07 08:30:55;;;;;;;1.70;1.70;;;;;;;3.03;84.66;95812.38;4404663;32;20232;-66
2023/12/07 08:33:20;;;;;;;1.77;1.73;;;;;;;3.20;84.17;95810.59;4362825;32;20299;-66
2023/12/07 08:35:46;;;;;;;2.03;1.93;;;;;;;3.29;84.21;95814.47;4355991;32;20192;-67
2023/12/07 08:38:13;;;;;;;3.43;3.23;;;;;;;3.47;82.99;95816.09;4367524;32;20219;-66
2023/12/07 08:40:43;;;;;;;2.63;2.07;;;;;;;3.60;81.94;95812.34;4396740;32;20288;-67
2023/12/07 08:43:10;;;;;;;1.90;1.87;;;;;;;3.60;82.11;95807.09;4385677;27;20332;-61
2023/12/07 08:45:38;;;;;;;2.63;2.50;;;;;;;3.43;83.08;95807.88;4306519;32;20304;-61
2023/12/07 08:48:05;;;;;;;2.33;2.23;;;;;;;3.56;82.40;95808.59;4349581;32;20317;-62
2023/12/07 08:50:32;;;;;;;2.57;2.43;;;;;;;3.75;82.15;95804.72;4344959;32;20289;-61
2023/12/07 08:52:59;;;;;;;2.53;2.33;;;;;;;3.91;81.11;95798.69;4338669;32;20368;-61
2023/12/07 08:55:26;;;;;;;1.87;1.77;;;;;;;3.86;81.22;95801.25;4347368;32;20350;-61
2023/12/07 08:57:54;;;;;;;2.80;2.60;;;;;;;3.97;80.23;95808.22;4336712;32;20302;-61
2023/12/07 09:00:23;;;;;;;2.17;2.07;;;;;;;4.03;79.31;95812.53;4328730;32;20293;-61
2023/12/07 09:02:51;;;;;;;2.20;2.00;;;;;;;3.88;79.63;95804.44;4311103;32;20304;-61
2023/12/07 09:05:18;;;;;;;2.23;2.13;;;;;;;4.17;79.12;95812.19;4336247;32;20291;-61
2023/12/07 09:07:44;;;;;;;2.80;2.60;;;;;;;4.14;79.26;95801.16;4350463;32;20295;-61
2023/12/07 09:10:12;;;;;;;2.40;2.30;;;;;;;3.97;79.69;95808.22;4336447;32;20207;-61
2023/12/07 09:12:38;;;;;;;1.40;1.40;;;;;;;4.15;79.05;95799.31;4342750;32;20314;-62
2023/12/07 09:15:10;;;;;;;2.43;2.33;;;;;;;4.58;78.68;95803.81;4320429;32;20289;-61
2023/12/07 09:17:39;;;;;;;2.40;2.20;;;;;;;4.86;75.94;95788.94;4317353;32;20297;-61
2023/12/07 09:20:14;;;;;;;2.03;1.93;;;;;;;4.81;75.05;95798.34;4340154;32;20353;-62
2023/12/07 09:22:48;;;;;;;2.40;2.20;;;;;;;4.56;76.76;95795.41;4338310;32;20342;-62
2023/12/07 09:25:18;;;;;;;1.30;1.27;;;;;;;4.56;76.55;95792.00;4332407;32;20297;-61
2023/12/07 09:27:45;;;;;;;2.10;1.97;;;;;;;4.69;76.37;95791.63;4349973;32;20298;-61
2023/12/07 09:30:16;;;;;;;1.93;1.83;;;;;;;4.45;77.13;95798.94;4334798;32;20289;-62
2023/12/07 09:32:46;;;;;;;2.80;2.60;;;;;;;4.60;76.50;95791.25;4344854;32;20285;-61
2023/12/07 09:35:19;;;;;;;2.43;2.03;;;;;;;4.77;75.70;95797.25;4337452;32;20332;-61
2023/12/07 09:37:48;;;;;;;4.30;1.37;;;;;;;4.76;75.58;95798.31;4308763;32;20306;-62
2023/12/07 09:40:25;;;;;;;1.83;1.73;;;;;;;4.73;74.00;95790.09;4326264;32;20378;-61
2023/12/07 09:42:51;;;;;;;2.57;2.37;;;;;;;4.97;73.10;95790.66;4338624;32;20278;-62
2023/12/07 09:45:20;;;;;;;2.03;1.93;;;;;;;5.00;72.62;95785.69;4319274;32;20329;-62
2023/12/07 09:48:04;;;;;;;2.07;1.97;;;;;;;4.93;70.81;95779.03;4337723;32;20294;-62
2023/12/07 09:50:32;;;;;;;1.57;1.47;;;;;;;5.24;69.35;95780.13;4341830;32;20293;-62
2023/12/07 09:52:59;;;;;;;1.53;1.47;;;;;;;4.93;65.99;95782.47;4344867;32;20293;-61
2023/12/07 09:55:26;;;;;;;1.27;0.93;;;;;;;5.17;64.67;95775.09;4339652;32;20357;-62
2023/12/07 09:57:56;;;;;;;1.67;1.60;;;;;;;5.09;65.99;95772.91;4337080;32;20293;-62
2023/12/07 10:00:25;;;;;;;1.00;1.00;;;;;;;5.08;68.33;95772.09;4318828;32;20299;-61
2023/12/07 10:02:53;;;;;;;1.57;1.40;;;;;;;5.11;65.45;95781.34;4355749;32;20293;-62
2023/12/07 10:05:20;;;;;;;1.10;1.10;;;;;;;5.27;66.97;95783.06;4347132;32;20289;-62
2023/12/07 10:07:51;;;;;;;1.83;1.73;;;;;;;5.20;66.12;95773.81;4333543;32;20348;-62
2023/12/07 10:10:19;;;;;;;1.00;0.97;;;;;;;5.16;65.85;95768.25;4340825;32;20286;-62
2023/12/07 10:12:54;;;;;;;0.87;0.87;;;;;;;5.40;63.45;95764.25;4340929;32;20289;-62
2023/12/07 10:15:22;;;;;;;1.07;0.53;;;;;;;5.33;63.98;95755.78;4299897;33;20293;-62
2023/12/07 10:17:59;;;;;;;0.57;0.57;;;;;;;5.65;63.10;95758.41;4322216;32;20364;-62
2023/12/07 10:20:29;;;;;;;0.30;0.30;;;;;;;5.31;61.16;95765.75;4331536;32;20292;-62
2023/12/07 10:23:08;;;;;;;0.50;0.50;;;;;;;5.18;59.76;95758.28;4346067;32;20320;-62
2023/12/07 10:25:39;;;;;;;0.80;0.80;;;;;;;5.33;57.09;95762.87;4349646;32;20371;-62
2023/12/07 10:28:07;;;;;;;1.13;1.00;;;;;;;5.29;60.49;95767.84;4348092;32;20309;-62
2023/12/07 10:30:34;;;;;;;1.70;1.33;;;;;;;4.76;56.36;95761.50;4316295;32;20312;-62
2023/12/07 10:33:05;;;;;;;0.70;0.70;;;;;;;5.30;57.33;95760.75;4339710;32;20321;-62
2023/12/07 10:35:31;;;;;;;0.73;0.73;;;;;;;5.77;58.32;95751.16;4332218;32;20270;-62
2023/12/07 10:37:58;;;;;;;0.53;0.53;;;;;;;5.70;58.80;95758.47;4324348;32;20293;-62
2023/12/07 10:40:25;;;;;;;0.67;0.67;;;;;;;5.76;60.09;95746.16;4320692;32;20349;-62
2023/12/07 10:42:56;;;;;;;0.63;0.63;;;;;;;5.78;60.79;95747.47;4337007;32;20309;-62
2023/12/07 10:45:34;;;;;;;0.63;0.63;;;;;;;5.70;59.24;95747.94;4317754;32;20294;-62
2023/12/07 10:48:08;;;;;;;0.57;0.57;;;;;;;5.75;60.24;95744.56;4344519;32;20316;-61
2023/12/07 10:50:41;;;;;;;0.60;0.60;;;;;;;5.37;59.29;95746.34;4325065;32;20277;-62
2023/12/07 10:53:27;;;;;;;1.33;1.27;;;;;;;5.50;58.64;95737.25;4332305;32;20348;-62
2023/12/07 10:55:58;;;;;;;0.63;0.63;;;;;;;5.69;60.43;95721.88;4334114;32;20317;-62
2023/12/07 10:58:26;;;;;;;0.90;0.90;;;;;;;5.67;59.65;95714.22;4363030;32;20296;-61
2023/12/07 11:00:54;;;;;;;0.87;0.87;;;;;;;5.71;59.18;95717.16;4330940;32;20286;-62
2023/12/07 11:03:25;;;;;;;3.83;1.67;;;;;;;5.99;57.71;95724.75;4348636;32;20304;-62
2023/12/07 11:05:52;;;;;;;1.10;1.10;;;;;;;5.72;61.67;95721.38;4343155;32;20277;-62
2023/12/07 11:08:43;;;;;;;0.30;0.30;;;;;;;5.72;60.58;95724.78;4328812;32;20391;-62
2023/12/07 11:11:28;;;;;;;0.40;0.40;;;;;;;5.85;55.66;95726.19;4333701;32;20312;-62
2023/12/07 11:14:05;;;;;;;1.07;1.07;;;;;;;5.95;57.72;95720.25;4323313;32;20303;-62
2023/12/07 11:16:43;;;;;;;0.60;0.50;;;;;;;5.55;56.97;95716.25;4351231;32;20360;-61
2023/12/07 11:19:36;;;;;;;0.53;0.53;;;;;;;5.66;54.57;95714.47;4334542;32;20324;-62
2023/12/07 11:22:10;;;;;;;0.63;0.63;;;;;;;5.60;52.66;95707.59;4333129;32;20333;-61
2023/12/07 11:24:36;;;;;;;0.37;0.37;;;;;;;6.07;50.42;95702.41;4352515;32;20290;-62
2023/12/07 11:27:02;;;;;;;0.50;0.50;;;;;;;6.09;51.10;95701.09;4335507;32;20290;-61
2023/12/07 11:29:30;;;;;;;0.77;0.77;;;;;;;6.04;52.03;95705.53;4333041;32;20342;-61
2023/12/07 11:32:03;;;;;;;0.70;0.70;;;;;;;5.99;50.50;95706.31;4355963;32;20208;-62
2023/12/07 11:34:43;;;;;;;0.37;0.37;;;;;;;5.72;52.14;95706.38;4348035;32;20285;-62
2023/12/07 11:37:14;;;;;;;0.33;0.33;;;;;;;5.81;52.07;95701.44;4313147;32;20311;-62
2023/12/07 11:39:41;;;;;;;0.40;0.40;;;;;;;5.48;50.64;95698.03;4323709;32;20329;-62
2023/12/07 11:42:20;;;;;;;0.53;0.53;;;;;;;5.79;49.90;95693.78;4335541;32;20285;-62
2023/12/07 11:44:50;;;;;;;0.53;0.53;;;;;;;5.84;50.76;95679.84;4322746;32;20297;-62
2023/12/07 11:47:27;;;;;;;0.40;0.40;;;;;;;5.94;51.81;95674.69;4335854;32;20357;-62